Time;durP1;ratioP1;P1;durP2;ratioP2;P2;SDS_P1;SDS_P2;PMS_P1;PMS_P2;Temp;Humidity;BMP_temperature;BMP_pressure;BME280_temperature;BME280_humidity;BME280_pressure;Samples;Min_cycle;Max_cycle;Signal;HPM_P1;HPM_P2
2023/03/30 00:01:02;;;;;;;10.50;4.50;;;13.80;99.90;;;;;;5042600;28;20378;-73
2023/03/30 00:03:30;;;;;;;9.83;4.43;;;13.80;99.90;;;;;;5040068;28;20241;-73
2023/03/30 00:06:03;;;;;;;7.30;4.10;;;13.80;99.90;;;;;;5030317;28;20696;-72
2023/03/30 00:08:32;;;;;;;15.97;4.70;;;13.90;99.90;;;;;;5043384;28;20216;-74
2023/03/30 00:11:00;;;;;;;7.10;4.20;;;13.90;99.90;;;;;;5043361;28;20712;-74
2023/03/30 00:13:28;;;;;;;7.87;4.50;;;14.00;99.90;;;;;;5043299;28;20205;-71
2023/03/30 00:15:55;;;;;;;9.63;4.50;;;14.00;99.90;;;;;;5042071;28;20648;-72
2023/03/30 00:18:22;;;;;;;6.63;4.40;;;14.00;99.90;;;;;;5038648;28;20287;-73
2023/03/30 00:20:50;;;;;;;9.20;4.40;;;14.10;99.90;;;;;;5042511;28;20237;-73
2023/03/30 00:23:21;;;;;;;7.87;3.93;;;14.00;99.90;;;;;;5042288;28;20261;-72
2023/03/30 00:25:48;;;;;;;11.43;4.20;;;14.00;99.90;;;;;;5041354;28;20209;-72
2023/03/30 00:28:15;;;;;;;9.00;4.03;;;14.10;99.90;;;;;;5042565;28;20292;-72
2023/03/30 00:30:42;;;;;;;8.73;4.17;;;14.10;99.90;;;;;;5029197;28;20289;-73
2023/03/30 00:33:09;;;;;;;11.80;3.90;;;14.10;99.90;;;;;;5042234;28;20270;-74
2023/03/30 00:35:36;;;;;;;7.63;4.73;;;14.10;99.90;;;;;;5043184;28;20233;-71
2023/03/30 00:38:02;;;;;;;8.87;4.10;;;14.10;99.90;;;;;;5039330;28;20210;-72
2023/03/30 00:40:31;;;;;;;6.33;4.20;;;14.00;99.90;;;;;;5022989;28;20205;-71
2023/03/30 00:43:10;;;;;;;8.83;4.30;;;14.00;99.90;;;;;;5039376;28;20220;-73
2023/03/30 00:45:37;;;;;;;8.10;3.70;;;14.00;99.90;;;;;;5041490;28;20193;-73
2023/03/30 00:48:28;;;;;;;6.90;4.03;;;14.10;99.90;;;;;;5043780;28;20217;-72
2023/03/30 00:51:06;;;;;;;9.93;4.13;;;14.00;99.90;;;;;;5041265;28;20240;-72
2023/03/30 00:53:37;;;;;;;5.30;3.60;;;14.00;99.90;;;;;;5039452;28;20717;-73
2023/03/30 00:56:07;;;;;;;8.93;4.27;;;14.00;99.90;;;;;;5039138;28;20206;-72
2023/03/30 00:58:35;;;;;;;7.33;3.50;;;14.10;99.90;;;;;;5038066;28;20206;-73
2023/03/30 01:01:06;;;;;;;8.37;3.60;;;14.10;99.90;;;;;;5040837;28;20216;-73
2023/03/30 01:03:37;;;;;;;6.30;3.83;;;14.00;99.90;;;;;;5043338;28;20339;-72
2023/03/30 01:06:09;;;;;;;7.47;4.03;;;14.00;99.90;;;;;;5041959;28;20201;-73
2023/03/30 01:08:37;;;;;;;7.73;3.90;;;14.00;99.90;;;;;;5040069;28;20209;-72
2023/03/30 01:11:05;;;;;;;7.77;3.83;;;14.00;99.90;;;;;;5041082;28;20228;-72
2023/03/30 01:13:41;;;;;;;7.73;4.00;;;14.00;99.90;;;;;;5032789;28;20275;-72
2023/03/30 01:16:17;;;;;;;8.17;3.87;;;14.00;99.90;;;;;;5041439;28;20234;-72
2023/03/30 01:18:56;;;;;;;8.53;3.70;;;14.00;99.90;;;;;;5017214;28;20325;-72
2023/03/30 01:21:54;;;;;;;5.20;3.43;;;14.00;99.90;;;;;;5021702;28;20208;-73
2023/03/30 01:24:34;;;;;;;7.70;3.47;;;14.00;99.90;;;;;;5020675;28;20686;-73
2023/03/30 01:27:23;;;;;;;5.87;3.50;;;13.90;99.90;;;;;;5022017;28;20301;-73
2023/03/30 01:30:14;;;;;;;8.17;4.00;;;13.90;99.90;;;;;;5022056;28;20287;-72
2023/03/30 01:32:57;;;;;;;5.57;3.30;;;13.90;99.90;;;;;;5018527;28;20218;-71
2023/03/30 01:35:32;;;;;;;7.10;3.83;;;13.90;99.90;;;;;;5021325;28;20202;-73
2023/03/30 01:38:18;;;;;;;7.83;3.97;;;13.80;99.90;;;;;;5021480;28;20203;-72
2023/03/30 01:40:55;;;;;;;7.00;3.30;;;13.80;99.90;;;;;;5017692;28;20300;-73
2023/03/30 01:43:34;;;;;;;6.20;3.30;;;13.80;99.90;;;;;;5021639;28;20229;-72
2023/03/30 01:46:11;;;;;;;5.37;2.80;;;13.80;99.90;;;;;;5009183;28;20240;-72
2023/03/30 01:48:50;;;;;;;7.30;4.10;;;13.70;99.90;;;;;;5019854;28;20224;-72
2023/03/30 01:51:22;;;;;;;7.30;3.57;;;13.70;99.90;;;;;;5011780;28;20198;-74
2023/03/30 01:53:58;;;;;;;7.40;3.17;;;13.70;99.90;;;;;;5020980;28;20210;-73
2023/03/30 01:56:40;;;;;;;8.83;3.37;;;13.70;99.90;;;;;;5003892;28;20249;-72
2023/03/30 01:59:17;;;;;;;6.50;3.43;;;13.70;99.90;;;;;;5021463;28;20206;-73
2023/03/30 02:01:48;;;;;;;8.17;3.70;;;13.70;99.90;;;;;;5021917;28;20241;-72
2023/03/30 02:04:21;;;;;;;6.40;3.27;;;13.70;99.90;;;;;;5022756;28;20786;-71
2023/03/30 02:07:02;;;;;;;7.33;3.33;;;13.70;99.90;;;;;;5012164;28;20224;-73
2023/03/30 02:09:32;;;;;;;5.63;3.13;;;13.70;99.90;;;;;;5024438;28;20248;-72
2023/03/30 02:12:01;;;;;;;5.43;3.37;;;13.60;99.90;;;;;;5021733;28;20606;-74
2023/03/30 02:14:31;;;;;;;7.40;3.40;;;13.60;99.90;;;;;;5022252;28;20305;-72
2023/03/30 02:17:13;;;;;;;9.20;3.20;;;13.60;99.90;;;;;;5011792;28;20341;-73
2023/03/30 02:19:41;;;;;;;6.53;3.03;;;13.60;99.90;;;;;;5028486;28;20736;-73
2023/03/30 02:22:08;;;;;;;8.63;3.70;;;13.60;99.90;;;;;;5024872;28;20619;-72
2023/03/30 02:24:35;;;;;;;5.20;2.90;;;13.60;99.90;;;;;;5021119;28;20233;-74
2023/03/30 02:27:03;;;;;;;7.23;3.30;;;13.60;99.90;;;;;;5023370;28;20206;-72
2023/03/30 02:29:31;;;;;;;5.40;3.17;;;13.50;99.90;;;;;;5023203;28;20689;-72
2023/03/30 02:31:59;;;;;;;6.80;3.43;;;13.50;99.90;;;;;;5022618;28;20234;-72
2023/03/30 02:34:48;;;;;;;7.40;3.60;;;13.40;99.90;;;;;;5024641;28;20219;-73
2023/03/30 02:37:41;;;;;;;7.43;3.23;;;13.40;99.90;;;;;;5025638;28;20210;-71
2023/03/30 02:40:16;;;;;;;9.13;3.47;;;13.30;99.90;;;;;;5021213;28;20209;-72
2023/03/30 02:42:42;;;;;;;4.93;2.83;;;13.20;99.90;;;;;;5024226;28;20205;-72
2023/03/30 02:45:28;;;;;;;5.10;3.30;;;13.20;99.90;;;;;;5022827;28;20208;-72
2023/03/30 02:48:27;;;;;;;5.93;3.17;;;13.10;99.90;;;;;;5025050;28;20232;-72
2023/03/30 02:51:20;;;;;;;6.77;3.07;;;13.10;99.90;;;;;;5021891;28;20290;-72
2023/03/30 02:53:57;;;;;;;5.40;3.20;;;13.00;99.90;;;;;;5035407;28;20639;-71
2023/03/30 02:56:57;;;;;;;7.37;3.03;;;13.00;99.90;;;;;;5021238;28;20216;-71
2023/03/30 02:59:35;;;;;;;5.93;3.00;;;12.90;99.90;;;;;;5021786;28;20210;-72
2023/03/30 03:02:21;;;;;;;5.57;2.97;;;12.80;99.90;;;;;;5021968;28;20280;-72
2023/03/30 03:04:51;;;;;;;6.60;3.30;;;12.80;99.90;;;;;;5020542;28;20257;-72
2023/03/30 03:07:20;;;;;;;6.43;3.23;;;12.80;99.90;;;;;;5029627;28;20675;-72
2023/03/30 03:09:48;;;;;;;5.77;2.80;;;12.80;99.90;;;;;;5024909;28;20717;-73
2023/03/30 03:12:15;;;;;;;6.37;3.10;;;12.90;99.90;;;;;;5019316;28;20747;-72
2023/03/30 03:14:42;;;;;;;11.27;3.00;;;13.00;99.90;;;;;;5025907;28;20222;-73
2023/03/30 03:17:08;;;;;;;13.83;3.20;;;13.10;99.90;;;;;;5026784;28;20337;-72
2023/03/30 03:19:35;;;;;;;8.57;3.10;;;13.20;99.90;;;;;;5047082;28;20639;-72
2023/03/30 03:22:02;;;;;;;6.07;3.20;;;13.20;99.90;;;;;;5040452;28;20255;-71
2023/03/30 03:24:32;;;;;;;6.83;3.00;;;13.30;99.90;;;;;;5046407;28;20213;-73
2023/03/30 03:26:59;;;;;;;6.47;2.90;;;13.30;99.90;;;;;;5039157;28;20947;-72
2023/03/30 03:29:26;;;;;;;4.37;2.70;;;13.40;99.90;;;;;;5046166;28;20288;-72
2023/03/30 03:31:53;;;;;;;8.40;2.40;;;13.50;99.90;;;;;;5040113;28;20661;-72
2023/03/30 03:34:20;;;;;;;5.87;2.53;;;13.50;99.90;;;;;;5042191;28;20229;-72
2023/03/30 03:36:51;;;;;;;6.63;2.53;;;13.50;99.90;;;;;;5023504;28;20984;-71
2023/03/30 03:39:18;;;;;;;5.63;2.77;;;13.60;99.90;;;;;;5044578;28;20228;-72
2023/03/30 03:41:45;;;;;;;3.93;2.40;;;13.60;99.90;;;;;;5039571;28;20297;-73
2023/03/30 03:44:12;;;;;;;5.50;2.43;;;13.60;99.90;;;;;;5037266;28;20933;-73
2023/03/30 03:46:38;;;;;;;6.53;2.93;;;13.60;99.90;;;;;;5039492;28;20343;-72
2023/03/30 03:49:05;;;;;;;4.23;2.50;;;13.70;99.90;;;;;;5042417;28;20228;-71
2023/03/30 03:51:32;;;;;;;5.87;2.83;;;13.70;99.90;;;;;;5039654;28;20296;-73
2023/03/30 03:53:59;;;;;;;5.60;2.50;;;13.70;99.90;;;;;;5041638;28;20236;-72
2023/03/30 03:56:26;;;;;;;7.97;2.47;;;13.70;99.90;;;;;;5039939;28;20288;-72
2023/03/30 03:58:53;;;;;;;5.27;2.60;;;13.60;99.90;;;;;;5042408;28;20287;-73
2023/03/30 04:01:21;;;;;;;6.33;3.00;;;13.60;99.90;;;;;;5039554;28;20233;-71
2023/03/30 04:03:48;;;;;;;6.07;2.20;;;13.50;99.90;;;;;;5023892;28;20279;-72
2023/03/30 04:06:15;;;;;;;7.17;2.77;;;13.50;99.90;;;;;;5040333;28;20225;-75
2023/03/30 04:08:42;;;;;;;6.90;2.80;;;13.50;99.90;;;;;;5042739;28;20259;-72
2023/03/30 04:11:10;;;;;;;5.57;2.60;;;13.60;99.90;;;;;;5039335;28;20229;-73
2023/03/30 04:13:39;;;;;;;5.17;2.80;;;13.60;99.90;;;;;;5044175;28;20674;-74
2023/03/30 04:16:07;;;;;;;4.33;2.60;;;13.60;99.90;;;;;;5040550;28;20296;-73
2023/03/30 04:18:35;;;;;;;7.63;2.93;;;13.60;99.90;;;;;;5038977;28;20240;-73
2023/03/30 04:21:04;;;;;;;5.00;2.53;;;13.60;99.90;;;;;;5044426;28;20205;-73
2023/03/30 04:23:33;;;;;;;6.97;2.73;;;13.60;99.90;;;;;;5039448;28;20228;-72
2023/03/30 04:26:00;;;;;;;6.57;2.40;;;13.60;99.90;;;;;;5043970;28;20209;-73
2023/03/30 04:28:32;;;;;;;4.97;1.93;;;13.50;99.90;;;;;;5030769;28;20578;-72
2023/03/30 04:31:00;;;;;;;8.67;3.03;;;13.50;99.90;;;;;;5030836;28;20212;-73
2023/03/30 04:33:28;;;;;;;4.73;1.93;;;13.50;99.90;;;;;;5029305;28;20309;-73
2023/03/30 04:35:55;;;;;;;6.10;2.07;;;13.60;99.90;;;;;;5036308;28;20292;-73
2023/03/30 04:38:22;;;;;;;4.13;1.90;;;13.60;99.90;;;;;;5045448;28;20210;-74
2023/03/30 04:40:50;;;;;;;6.70;2.40;;;13.60;99.90;;;;;;5043920;28;20548;-73
2023/03/30 04:43:18;;;;;;;9.37;1.97;;;13.60;99.90;;;;;;5044649;28;20304;-71
2023/03/30 04:45:50;;;;;;;6.07;2.10;;;13.60;99.90;;;;;;5030321;28;20666;-73
2023/03/30 04:48:19;;;;;;;5.47;1.73;;;13.70;99.90;;;;;;5041855;28;20217;-73
2023/03/30 04:50:48;;;;;;;5.43;1.70;;;13.70;99.90;;;;;;5042539;28;20288;-72
2023/03/30 04:53:16;;;;;;;7.90;1.87;;;13.80;99.90;;;;;;5038974;28;20292;-73
2023/03/30 04:55:47;;;;;;;2.77;1.70;;;13.80;99.90;;;;;;5041677;28;20211;-74
2023/03/30 04:58:14;;;;;;;5.57;2.03;;;13.80;99.90;;;;;;5041784;28;20559;-73
2023/03/30 05:00:41;;;;;;;6.03;2.00;;;13.90;99.90;;;;;;5039102;28;20248;-72
2023/03/30 05:03:08;;;;;;;6.53;1.97;;;13.80;99.90;;;;;;5042513;28;20720;-71
2023/03/30 05:05:35;;;;;;;9.20;2.23;;;13.90;99.90;;;;;;5044396;28;20205;-72
2023/03/30 05:08:02;;;;;;;4.73;2.00;;;13.90;99.90;;;;;;5041964;28;20208;-72
2023/03/30 05:10:29;;;;;;;4.53;1.87;;;13.90;99.90;;;;;;5041122;28;20288;-73
2023/03/30 05:12:56;;;;;;;4.77;2.13;;;13.80;99.90;;;;;;5045894;28;20251;-73
2023/03/30 05:15:23;;;;;;;6.10;2.60;;;13.80;99.90;;;;;;5040814;28;20217;-73
2023/03/30 05:17:51;;;;;;;6.60;2.13;;;13.80;99.90;;;;;;5037512;28;20341;-72
2023/03/30 05:20:17;;;;;;;5.70;2.13;;;13.70;99.90;;;;;;5030611;28;20232;-72
2023/03/30 05:22:45;;;;;;;6.93;2.23;;;13.60;99.90;;;;;;5042157;28;20217;-73
2023/03/30 05:25:12;;;;;;;5.40;2.43;;;13.60;99.90;;;;;;5042716;28;20704;-74
2023/03/30 05:27:39;;;;;;;6.90;2.50;;;13.40;99.90;;;;;;5042475;28;20215;-73
2023/03/30 05:30:07;;;;;;;4.97;2.23;;;13.40;99.90;;;;;;5042156;28;20240;-73
2023/03/30 05:32:34;;;;;;;8.83;3.00;;;13.30;99.90;;;;;;5042175;28;20224;-73
2023/03/30 05:35:01;;;;;;;7.07;3.43;;;13.30;99.90;;;;;;5043730;28;20208;-73
2023/03/30 05:37:27;;;;;;;7.40;2.97;;;13.30;99.90;;;;;;5048663;28;20205;-73
2023/03/30 05:39:54;;;;;;;5.80;2.60;;;13.20;99.90;;;;;;5046075;28;20209;-72
2023/03/30 05:42:21;;;;;;;4.80;2.47;;;13.20;99.90;;;;;;5046212;28;20267;-72
2023/03/30 05:44:48;;;;;;;8.37;2.90;;;13.10;99.90;;;;;;5048039;28;20307;-74
2023/03/30 05:47:15;;;;;;;9.80;4.10;;;13.00;99.90;;;;;;5043602;28;20296;-73
2023/03/30 05:49:42;;;;;;;10.13;3.43;;;12.90;99.90;;;;;;5031778;28;20208;-73
2023/03/30 05:52:10;;;;;;;7.57;3.60;;;12.90;99.90;;;;;;5043988;28;20228;-72
2023/03/30 05:54:37;;;;;;;6.23;3.00;;;12.90;99.90;;;;;;5050216;28;20232;-72
2023/03/30 05:57:04;;;;;;;6.60;3.20;;;12.90;99.90;;;;;;5045839;28;20284;-73
2023/03/30 05:59:31;;;;;;;5.57;3.33;;;12.90;99.90;;;;;;5047977;28;20212;-73
2023/03/30 06:01:59;;;;;;;11.30;3.67;;;12.90;99.90;;;;;;5040358;28;20197;-72
2023/03/30 06:04:26;;;;;;;8.73;3.73;;;12.90;99.90;;;;;;5043242;28;20724;-73
2023/03/30 06:06:53;;;;;;;8.73;3.43;;;12.90;99.90;;;;;;5045640;28;20205;-73
2023/03/30 06:09:20;;;;;;;9.97;3.80;;;12.80;99.90;;;;;;5043518;28;20704;-73
2023/03/30 06:11:46;;;;;;;5.20;3.40;;;12.80;99.90;;;;;;5045295;28;20304;-72
2023/03/30 06:14:13;;;;;;;9.20;4.50;;;12.80;99.90;;;;;;5048269;28;20662;-74
2023/03/30 06:16:40;;;;;;;7.50;3.60;;;12.80;99.90;;;;;;5052945;28;20217;-73
2023/03/30 06:19:07;;;;;;;8.80;3.80;;;12.80;99.90;;;;;;5052008;28;20233;-73
2023/03/30 06:21:34;;;;;;;10.63;3.73;;;12.90;99.90;;;;;;5057078;28;20725;-74
2023/03/30 06:24:00;;;;;;;11.03;4.80;;;12.90;99.90;;;;;;5032064;28;20341;-74
2023/03/30 06:26:28;;;;;;;10.87;4.10;;;12.90;99.90;;;;;;5036771;28;20661;-74
2023/03/30 06:28:55;;;;;;;8.90;3.70;;;12.90;99.90;;;;;;5052398;28;20245;-74
2023/03/30 06:31:21;;;;;;;12.93;4.20;;;13.00;99.90;;;;;;5049211;28;20231;-73
2023/03/30 06:33:50;;;;;;;11.77;3.73;;;13.00;99.90;;;;;;5052518;28;20224;-73
2023/03/30 06:36:16;;;;;;;9.97;4.07;;;13.00;99.90;;;;;;5048477;28;20618;-74
2023/03/30 06:38:43;;;;;;;10.60;3.90;;;13.10;99.90;;;;;;5051164;28;20200;-74
2023/03/30 06:41:11;;;;;;;14.70;4.10;;;13.20;99.90;;;;;;5050751;28;20292;-74
2023/03/30 06:43:38;;;;;;;11.27;3.47;;;13.30;99.90;;;;;;5052371;28;20196;-74
2023/03/30 06:46:06;;;;;;;11.63;3.50;;;13.40;99.90;;;;;;5051328;28;20559;-74
2023/03/30 06:48:34;;;;;;;10.10;3.40;;;13.40;99.90;;;;;;5053784;28;20316;-74
2023/03/30 06:51:01;;;;;;;13.10;3.97;;;13.40;99.90;;;;;;5051064;28;20263;-74
2023/03/30 06:53:28;;;;;;;8.90;3.77;;;13.40;99.90;;;;;;5050994;28;20259;-75
2023/03/30 06:55:57;;;;;;;13.57;3.63;;;13.40;99.90;;;;;;5052540;28;20652;-74
2023/03/30 06:58:26;;;;;;;11.93;4.00;;;13.40;99.90;;;;;;5046231;28;20224;-75
2023/03/30 07:00:54;;;;;;;12.30;4.67;;;13.40;99.90;;;;;;5045748;28;20209;-73
2023/03/30 07:03:21;;;;;;;11.47;4.53;;;13.50;99.90;;;;;;5049049;28;20217;-75
2023/03/30 07:05:49;;;;;;;11.07;3.43;;;13.50;99.90;;;;;;5055823;28;20315;-75
2023/03/30 07:08:17;;;;;;;11.63;4.00;;;13.60;99.90;;;;;;5049618;28;20660;-74
2023/03/30 07:10:46;;;;;;;16.17;4.60;;;13.80;99.90;;;;;;5048836;28;20204;-75
2023/03/30 07:13:15;;;;;;;10.27;3.83;;;13.70;99.90;;;;;;5048317;28;20205;-74
2023/03/30 07:15:44;;;;;;;7.63;3.13;;;13.80;99.90;;;;;;5060315;28;20203;-74
2023/03/30 07:18:12;;;;;;;12.53;4.83;;;13.80;99.90;;;;;;5041520;28;20232;-73
2023/03/30 07:20:39;;;;;;;13.03;3.80;;;13.80;99.90;;;;;;5049717;28;20284;-75
2023/03/30 07:23:06;;;;;;;9.37;3.00;;;13.90;99.90;;;;;;5051312;28;20287;-74
2023/03/30 07:25:33;;;;;;;11.60;3.17;;;14.00;99.90;;;;;;5051651;28;20703;-73
2023/03/30 07:28:01;;;;;;;10.70;2.90;;;14.20;99.90;;;;;;5057397;28;20208;-74
2023/03/30 07:30:27;;;;;;;15.23;3.67;;;14.60;99.90;;;;;;5028431;28;20224;-73
2023/03/30 07:32:55;;;;;;;14.10;3.20;;;15.00;99.90;;;;;;5052948;28;20291;-74
2023/03/30 07:35:25;;;;;;;14.93;3.10;;;15.00;99.90;;;;;;5046158;28;20208;-74
2023/03/30 07:37:52;;;;;;;9.30;2.92;;;15.00;99.90;;;;;;5050174;28;20290;-75
2023/03/30 07:40:28;;;;;;;14.98;3.15;;;14.90;99.90;;;;;;5050744;28;20197;-74
2023/03/30 07:42:55;;;;;;;15.40;3.83;;;14.60;99.90;;;;;;5055505;28;20240;-74
2023/03/30 07:45:22;;;;;;;13.45;3.17;;;14.50;99.90;;;;;;5058381;28;20241;-74
2023/03/30 07:47:48;;;;;;;13.05;3.80;;;14.30;99.90;;;;;;5050625;28;20344;-74
2023/03/30 07:50:15;;;;;;;13.95;3.35;;;14.30;99.90;;;;;;5049929;28;20319;-74
2023/03/30 07:52:42;;;;;;;14.63;3.50;;;14.30;99.90;;;;;;5054886;28;20204;-75
2023/03/30 07:55:11;;;;;;;14.45;3.60;;;14.20;99.90;;;;;;5049502;28;20205;-75
2023/03/30 07:57:37;;;;;;;14.43;3.60;;;14.10;99.90;;;;;;5050592;28;20407;-75
2023/03/30 08:00:06;;;;;;;12.73;3.17;;;14.10;99.90;;;;;;5052979;28;20205;-74
2023/03/30 08:02:34;;;;;;;14.60;4.47;;;14.10;99.90;;;;;;5054045;28;20252;-74
2023/03/30 08:05:01;;;;;;;11.70;3.87;;;14.20;99.90;;;;;;5034213;28;20230;-74
2023/03/30 08:07:28;;;;;;;15.73;4.20;;;14.20;99.90;;;;;;5058472;28;20201;-72
2023/03/30 08:09:55;;;;;;;13.52;4.38;;;14.20;99.90;;;;;;5052922;28;20259;-75
2023/03/30 08:12:22;;;;;;;11.70;3.07;;;14.20;99.90;;;;;;5033847;28;20665;-74
2023/03/30 08:14:49;;;;;;;7.82;2.95;;;14.20;99.90;;;;;;5052474;28;20745;-74
2023/03/30 08:17:18;;;;;;;18.67;3.70;;;14.40;99.90;;;;;;5062196;28;20267;-74
2023/03/30 08:19:44;;;;;;;12.48;3.40;;;14.40;99.90;;;;;;5060759;28;20258;-74
2023/03/30 08:22:11;;;;;;;13.23;3.70;;;14.50;99.90;;;;;;5054915;28;20743;-74
2023/03/30 08:24:38;;;;;;;14.18;3.33;;;14.60;99.90;;;;;;5033482;28;20225;-74
2023/03/30 08:27:05;;;;;;;11.75;3.55;;;14.60;99.90;;;;;;5051822;28;20205;-75
2023/03/30 08:29:32;;;;;;;11.88;3.22;;;14.70;99.90;;;;;;5035730;28;20574;-75
2023/03/30 08:31:59;;;;;;;14.93;4.18;;;14.80;99.90;;;;;;5040652;28;20281;-75
2023/03/30 08:34:27;;;;;;;13.02;3.70;;;14.80;99.90;;;;;;5050876;28;20212;-74
2023/03/30 08:36:54;;;;;;;19.05;4.65;;;14.80;99.90;;;;;;5043891;28;20205;-73
2023/03/30 08:39:21;;;;;;;15.38;4.03;;;14.70;99.90;;;;;;5028791;28;20559;-74
2023/03/30 08:42:23;;;;;;;14.00;3.80;;;14.60;99.90;;;;;;5029331;28;20242;-74
2023/03/30 08:44:56;;;;;;;14.45;3.20;;;14.70;99.90;;;;;;5040333;28;20334;-75
2023/03/30 08:47:33;;;;;;;18.60;3.50;;;14.60;99.90;;;;;;5042421;28;20217;-74
2023/03/30 08:50:14;;;;;;;15.13;4.37;;;14.60;99.90;;;;;;5041104;28;20284;-78
2023/03/30 08:52:41;;;;;;;17.50;3.55;;;14.60;99.90;;;;;;5030552;28;20313;-74
2023/03/30 08:55:19;;;;;;;9.55;3.42;;;14.50;99.90;;;;;;5037326;28;20285;-74
2023/03/30 08:57:58;;;;;;;17.30;4.23;;;14.50;99.90;;;;;;5036362;28;20662;-75
2023/03/30 09:00:39;;;;;;;21.30;4.00;;;14.30;99.90;;;;;;5038444;28;20190;-73
2023/03/30 09:03:14;;;;;;;11.97;3.30;;;14.30;99.90;;;;;;5038686;28;20589;-74
2023/03/30 09:05:54;;;;;;;15.73;3.93;;;14.40;99.90;;;;;;5040228;28;20229;-76
2023/03/30 09:08:27;;;;;;;15.07;4.68;;;14.60;99.90;;;;;;5042385;28;20665;-74
2023/03/30 09:11:00;;;;;;;16.20;3.92;;;14.80;99.90;;;;;;5039489;28;20213;-74
2023/03/30 09:13:35;;;;;;;19.20;4.15;;;14.90;99.90;;;;;;5041223;28;20198;-76
2023/03/30 09:16:27;;;;;;;16.27;4.10;;;15.00;99.90;;;;;;5039082;28;20259;-74
2023/03/30 09:18:56;;;;;;;8.90;3.38;;;15.00;99.90;;;;;;5039308;28;20226;-75
2023/03/30 09:21:27;;;;;;;14.32;3.90;;;15.00;99.90;;;;;;5059856;28;20232;-75
2023/03/30 09:23:57;;;;;;;18.88;4.75;;;15.00;99.90;;;;;;5050184;28;20209;-75
2023/03/30 09:26:57;;;;;;;16.55;4.05;;;14.90;99.90;;;;;;5037525;28;20271;-75
2023/03/30 09:29:28;;;;;;;21.48;4.22;;;14.80;99.90;;;;;;5035776;28;20237;-75
2023/03/30 09:32:15;;;;;;;16.52;3.78;;;14.70;99.90;;;;;;5040904;28;20283;-75
2023/03/30 09:34:49;;;;;;;21.98;4.25;;;14.70;99.90;;;;;;5028899;28;20213;-74
2023/03/30 09:37:17;;;;;;;14.65;3.75;;;14.80;99.90;;;;;;5038926;28;20728;-73
2023/03/30 09:39:45;;;;;;;18.63;3.90;;;14.90;99.90;;;;;;5031091;28;20208;-75
2023/03/30 09:42:15;;;;;;;12.60;3.67;;;15.10;99.90;;;;;;5039214;28;20194;-75
2023/03/30 09:45:00;;;;;;;18.08;3.10;;;15.40;99.90;;;;;;5043660;28;20229;-75
2023/03/30 09:47:36;;;;;;;12.30;3.22;;;15.70;99.90;;;;;;5022440;28;20218;-74
2023/03/30 09:50:09;;;;;;;12.30;3.50;;;16.00;99.90;;;;;;5039509;28;20662;-75
2023/03/30 09:52:39;;;;;;;11.93;3.10;;;16.30;99.90;;;;;;5039814;28;20288;-74
2023/03/30 09:55:29;;;;;;;11.20;3.38;;;16.60;99.90;;;;;;5041132;28;20190;-74
2023/03/30 09:58:13;;;;;;;12.25;3.20;;;16.80;99.90;;;;;;5043237;28;20301;-75
2023/03/30 10:00:40;;;;;;;12.55;3.00;;;16.90;99.90;;;;;;5029913;28;20223;-77
2023/03/30 10:03:17;;;;;;;12.73;3.83;;;16.80;99.90;;;;;;5048599;28;20241;-74
2023/03/30 10:05:44;;;;;;;14.90;3.10;;;16.70;99.90;;;;;;5044563;28;20233;-74
2023/03/30 10:08:20;;;;;;;13.43;3.97;;;16.40;99.90;;;;;;5041434;28;20202;-74
2023/03/30 10:10:55;;;;;;;14.35;2.75;;;16.30;99.90;;;;;;5040297;28;20209;-74
2023/03/30 10:13:43;;;;;;;13.95;3.80;;;16.30;99.90;;;;;;5038805;28;20700;-74
2023/03/30 10:16:28;;;;;;;17.00;3.30;;;16.40;99.90;;;;;;5060036;28;20367;-76
2023/03/30 10:19:00;;;;;;;17.27;3.35;;;16.40;99.90;;;;;;5059775;28;20256;-73
2023/03/30 10:21:45;;;;;;;12.68;3.15;;;16.50;99.90;;;;;;5062073;28;20206;-74
2023/03/30 10:24:23;;;;;;;18.65;3.70;;;16.40;99.90;;;;;;5049561;28;20636;-75
2023/03/30 10:26:56;;;;;;;20.75;4.30;;;16.40;99.90;;;;;;5051947;28;20232;-74
2023/03/30 10:29:26;;;;;;;12.00;3.20;;;16.20;99.90;;;;;;5053223;28;20206;-75
2023/03/30 10:32:15;;;;;;;17.08;4.28;;;16.10;99.90;;;;;;5054759;28;20197;-74
2023/03/30 10:34:44;;;;;;;18.75;4.07;;;16.10;99.90;;;;;;5055191;28;20263;-74
2023/03/30 10:37:31;;;;;;;19.08;4.22;;;16.10;99.90;;;;;;5053003;28;20240;-75
2023/03/30 10:40:04;;;;;;;24.83;4.28;;;16.20;99.90;;;;;;5028122;28;20289;-75
2023/03/30 10:42:32;;;;;;;24.48;4.68;;;16.10;99.90;;;;;;5027664;28;20687;-74
2023/03/30 10:45:01;;;;;;;16.63;3.78;;;16.10;99.90;;;;;;5024846;28;20267;-75
2023/03/30 10:48:01;;;;;;;17.58;4.10;;;16.10;99.90;;;;;;5044375;28;20221;-74
2023/03/30 10:50:34;;;;;;;24.05;3.88;;;16.00;99.90;;;;;;5025516;28;20288;-74
2023/03/30 10:53:26;;;;;;;17.15;3.55;;;15.80;99.90;;;;;;5041577;28;20205;-76
2023/03/30 10:56:04;;;;;;;18.80;4.10;;;15.80;99.90;;;;;;5044707;28;20240;-74
2023/03/30 10:58:56;;;;;;;23.15;3.72;;;15.80;99.90;;;;;;5039102;28;20213;-75
2023/03/30 11:01:32;;;;;;;14.98;3.63;;;15.80;99.90;;;;;;5051705;28;20262;-75
2023/03/30 11:04:05;;;;;;;15.75;3.65;;;15.80;99.90;;;;;;5049127;28;20221;-79
2023/03/30 11:06:51;;;;;;;19.42;4.22;;;;;;;;;;5043188;28;20230;-77
2023/03/30 11:09:27;;;;;;;14.70;3.30;;;15.90;99.90;;;;;;5039761;28;20297;-76
2023/03/30 11:12:00;;;;;;;17.20;3.42;;;16.00;99.90;;;;;;5041283;28;20244;-77
2023/03/30 11:14:41;;;;;;;18.27;4.47;;;15.90;99.90;;;;;;5043332;28;20316;-76
2023/03/30 11:17:22;;;;;;;17.88;3.63;;;16.00;99.90;;;;;;5047588;28;20260;-75
2023/03/30 11:19:54;;;;;;;20.00;3.88;;;16.00;99.90;;;;;;5043906;28;20236;-76
2023/03/30 11:22:45;;;;;;;18.13;3.75;;;16.00;99.90;;;;;;5041977;28;20202;-76
2023/03/30 11:25:35;;;;;;;22.88;4.40;;;16.10;99.90;;;;;;5041903;28;20328;-75
2023/03/30 11:28:14;;;;;;;22.42;4.50;;;16.20;99.90;;;;;;5053058;28;20295;-76
2023/03/30 11:30:42;;;;;;;22.60;4.82;;;16.10;99.90;;;;;;5048261;28;20232;-76
2023/03/30 11:33:25;;;;;;;15.98;4.30;;;16.20;99.90;;;;;;5030885;28;20217;-75
2023/03/30 11:35:54;;;;;;;25.45;4.65;;;16.20;99.90;;;;;;5042240;28;20204;-76
2023/03/30 11:38:29;;;;;;;18.02;3.45;;;16.20;99.90;;;;;;5043677;28;20280;-75
2023/03/30 11:41:13;;;;;;;23.05;4.20;;;16.20;99.90;;;;;;5055420;28;20243;-75
2023/03/30 11:43:41;;;;;;;19.17;3.78;;;16.10;99.90;;;;;;5050790;28;20233;-76
2023/03/30 11:46:26;;;;;;;22.75;3.97;;;16.20;99.90;;;;;;5039871;28;20238;-76
2023/03/30 11:49:06;;;;;;;24.80;4.20;;;16.40;99.90;;;;;;5042581;28;20223;-74
2023/03/30 11:52:06;;;;;;;15.68;3.08;;;16.40;99.90;;;;;;5038524;28;20261;-75
2023/03/30 11:55:12;;;;;;;20.25;4.32;;;16.50;99.90;;;;;;5040534;28;20236;-75
2023/03/30 11:58:13;;;;;;;19.15;3.90;;;16.30;99.90;;;;;;5041226;28;20577;-75
2023/03/30 12:00:54;;;;;;;24.83;4.45;;;16.30;99.90;;;;;;5005870;28;20250;-75
2023/03/30 12:03:43;;;;;;;23.17;3.90;;;16.30;99.90;;;;;;5038721;28;20698;-76
2023/03/30 12:06:28;;;;;;;20.48;3.63;;;16.40;99.90;;;;;;5043149;28;20229;-74
2023/03/30 12:09:04;;;;;;;19.83;4.03;;;16.50;99.90;;;;;;5037841;28;20232;-77
2023/03/30 12:11:36;;;;;;;15.40;3.08;;;16.40;99.90;;;;;;5040116;28;20323;-80
2023/03/30 12:14:29;;;;;;;15.55;3.58;;;16.40;99.90;;;;;;5044102;28;20202;-74
2023/03/30 12:17:03;;;;;;;22.52;5.70;;;16.30;99.90;;;;;;5061770;28;20307;-75
2023/03/30 12:19:51;;;;;;;17.45;3.28;;;16.20;99.90;;;;;;5044877;28;20236;-74
2023/03/30 12:23:01;;;;;;;19.75;3.90;;;16.20;99.90;;;;;;5041870;28;20296;-74
2023/03/30 12:26:08;;;;;;;18.17;3.95;;;16.20;99.90;;;;;;5043928;28;20242;-73
2023/03/30 12:29:12;;;;;;;18.40;3.35;;;16.30;99.90;;;;;;5043598;28;20284;-76
2023/03/30 12:32:00;;;;;;;21.73;3.20;;;16.50;99.90;;;;;;5012406;28;20684;-74
2023/03/30 12:34:30;;;;;;;15.57;3.33;;;16.50;99.90;;;;;;5042795;28;20239;-76
2023/03/30 12:37:04;;;;;;;16.95;3.80;;;16.50;99.90;;;;;;5038373;28;20292;-74
2023/03/30 12:39:35;;;;;;;16.83;4.40;;;16.30;99.90;;;;;;5035517;28;20202;-73
2023/03/30 12:42:06;;;;;;;20.73;3.88;;;16.20;99.90;;;;;;5041930;28;20244;-73
2023/03/30 12:44:56;;;;;;;17.90;3.80;;;16.30;99.90;;;;;;5039752;28;20215;-75
2023/03/30 12:47:35;;;;;;;13.43;3.40;;;16.40;99.90;;;;;;5022080;28;20761;-74
2023/03/30 12:50:08;;;;;;;16.63;3.60;;;16.60;99.90;;;;;;5039771;28;20200;-74
2023/03/30 12:52:59;;;;;;;16.75;3.33;;;16.80;99.90;;;;;;5040305;28;20206;-76
2023/03/30 12:55:39;;;;;;;17.70;3.53;;;16.90;99.90;;;;;;5021883;28;20209;-74
2023/03/30 12:58:12;;;;;;;13.07;3.17;;;16.90;99.90;;;;;;5045962;28;20193;-74
2023/03/30 13:01:11;;;;;;;18.23;3.60;;;17.00;99.90;;;;;;5042615;28;20228;-76
2023/03/30 13:03:48;;;;;;;15.93;3.88;;;17.10;99.90;;;;;;5036327;28;20214;-76
2023/03/30 13:06:32;;;;;;;13.88;3.08;;;17.00;99.90;;;;;;5044397;28;20231;-74
2023/03/30 13:09:26;;;;;;;17.73;3.63;;;17.20;99.90;;;;;;5040819;28;20293;-73
2023/03/30 13:11:52;;;;;;;18.98;3.58;;;17.50;99.90;;;;;;5040994;28;20283;-74
2023/03/30 13:14:38;;;;;;;15.25;3.33;;;17.70;99.90;;;;;;5042128;28;20352;-75